Stations météo

réclame
Mon MeteoGroup
Nordkoster, Suède (2500): Température de l'air: 17.10.2018 22:00:00 - 23.10.2018 22:00:00 (CEST)Nordkoster, Suède (2500): Vitesse du vent & gusts: 17.10.2018 22:00:00 - 23.10.2018 22:00:00 (CEST)Nordkoster, Suède (2500): Direction du vent: 17.10.2018 22:00:00 - 23.10.2018 22:00:00 (CEST)Nordkoster, Suède (2500): reduced air pressure: 17.10.2018 22:00:00 - 23.10.2018 22:00:00 (CEST)Nordkoster, Suède (2500): visibility: 17.10.2018 22:00:00 - 23.10.2018 22:00:00 (CEST)Nordkoster, Suède (2500): Quantités de précipitations: 17.10.2018 22:00:00 - 23.10.2018 22:00:00 (CEST)
Date & Time tt [°C] ff [km/h] ff [knt] fx [km/h] fx [knt] dd ppp [hPa] vv [km] rr [mm]
23.10.2018 22:00:00 7,5 20 11 29 15 N 1002,1 50 0,0
23.10.2018 21:00:00 6,9 13 7 38 21 N 1001,6 50 0,0
23.10.2018 20:00:00 7,7 32 17 50 27 NNE 1000,3 50 0,0
23.10.2018 19:00:00 8,2 37 20 80 43 NNE 999,1 50 0,0
23.10.2018 18:00:00 11,3 57 31 82 44 NW 996,1 43 0,0
23.10.2018 17:00:00 12,2 45 24 67 36 NW 995,3 41 0,0
23.10.2018 16:00:00 12,8 22 12 40 22 NW 995,4 27 0,0
23.10.2018 15:00:00 12,9 23 13 46 25 NNW 995,2 33 0,0
23.10.2018 14:00:00 13,0 21 11 52 28 NW 995,3 24 0,0
23.10.2018 13:00:00 12,8 32 17 48 26 NW 995,2 23 0,0
23.10.2018 12:00:00 12,0 29 15 48 26 WNW 995,2 30 0,0
23.10.2018 11:00:00 11,6 39 21 53 29 WNW 994,5 36 0,0
23.10.2018 10:00:00 11,4 40 22 60 32 WNW 994,0 28 0,0
23.10.2018 09:00:00 11,4 41 22 59 32 WNW 993,9 32 0,0
23.10.2018 08:00:00 11,7 33 18 45 25 WNW 993,9 34 0,0
23.10.2018 07:00:00 11,8 26 14 57 31 W 994,1 20 0,0
23.10.2018 06:00:00 12,0 34 18 56 30 W 993,9 20 0,0
23.10.2018 05:00:00 11,7 32 18 67 36 W 994,4 23 0,0
23.10.2018 04:00:00 11,5 48 26 66 36 W 994,3 20 0,0
23.10.2018 03:00:00 11,3 41 22 68 37 W 996,3 13 0,0
23.10.2018 02:00:00 11,0 44 24 74 40 WSW 998,2 15 0,0
23.10.2018 01:00:00 10,9 47 25 83 45 WSW 1000,6 12 0,0
23.10.2018 00:00:00 10,8 50 27 83 45 WSW 1003,6 13 0,0
22.10.2018 23:00:00 10,1 49 27 74 40 SW 1007,0 17 0,0
22.10.2018 22:00:00 10,3 41 22 69 37 SW 1009,7 15 0,0
22.10.2018 21:00:00 10,1 46 25 62 33 SW 1011,8 16 0,0
22.10.2018 20:00:00 9,9 47 25 73 40 WSW 1013,5 17 0,0
22.10.2018 19:00:00 10,5 39 21 56 30 WSW 1014,4 25 0,0
22.10.2018 18:00:00 10,6 36 19 53 29 WSW 1015,1 40 0,0
22.10.2018 17:00:00 11,2 39 21 57 31 W 1015,7 45 0,0
22.10.2018 16:00:00 11,3 34 18 46 25 W 1016,4 43 0,0
22.10.2018 15:00:00 11,4 27 15 42 23 W 1017,2 27 0,0
22.10.2018 14:00:00 11,1 22 12 41 22 WSW 1017,5 31 0,0
22.10.2018 13:00:00 10,3 30 16 47 25 W 1017,3 28 0,0
22.10.2018 12:00:00 9,8 33 18 56 30 W 1017,8 32 0,0
22.10.2018 11:00:00 9,4 39 21 63 34 W 1016,9 27 0,0
22.10.2018 10:00:00 9,5 44 24 61 33 W 1016,6 32 0,0
22.10.2018 09:00:00 9,5 38 21 60 33 W 1016,7 28 0,0
22.10.2018 08:00:00 9,6 39 21 58 31 W 1016,0 38 0,0
22.10.2018 07:00:00 9,7 40 21 66 36 W 1015,3 34 0,0
22.10.2018 06:00:00 10,3 43 23 68 37 W 1014,6 23 0,0
22.10.2018 05:00:00 10,8 44 24 62 34 W 1014,3 26 0,0
22.10.2018 04:00:00 11,2 39 21 62 34 W 1013,7 24 0,0
22.10.2018 03:00:00 11,5 39 21 60 33 W 1013,8 22 0,0
22.10.2018 02:00:00 11,8 39 21 57 31 W 1013,8 25 0,0
22.10.2018 01:00:00 12,2 35 19 54 29 W 1013,4 21 0,0
22.10.2018 00:00:00 13,0 36 19 54 29 W 1012,8 42 0,0
21.10.2018 23:00:00 13,0 34 18 53 28 W 1011,8 12 0,0
21.10.2018 22:00:00 12,8 35 19 58 32 WSW 1011,1 8 0,0
21.10.2018 21:00:00 12,8 42 23 62 34 SW 1011,1 7 0,0
21.10.2018 20:00:00 12,7 43 23 65 35 SW 1011,4 6 0,0
21.10.2018 19:00:00 12,4 41 22 61 33 SSW 1011,4 4,7 0,0
21.10.2018 18:00:00 12,2 45 25 67 36 SW 1012,1 4,6 0,0
21.10.2018 17:00:00 12,4 42 23 64 34 SW 1013,1 7 0,0
21.10.2018 16:00:00 12,5 41 22 61 33 SW 1013,8 3,9 0,0
21.10.2018 15:00:00 12,2 36 19 58 32 SW 1014,9 8 0,0
21.10.2018 14:00:00 12,3 35 19 59 32 SW 1015,6 6 0,0
21.10.2018 13:00:00 12,2 33 18 54 29 SW 1016,6 5 0,0
21.10.2018 12:00:00 12,4 32 17 48 26 SW 1017,3 7 0,0
21.10.2018 11:00:00 12,4 31 17 48 26 SW 1017,8 7 0,0
21.10.2018 10:00:00 12,3 29 16 51 27 SW 1018,4 7 0,0
21.10.2018 09:00:00 12,4 33 18 54 29 SW 1018,5 10 0,0
21.10.2018 08:00:00 12,2 29 16 49 27 SW 1018,5 10 0,0
21.10.2018 07:00:00 11,9 32 17 49 26 SW 1018,7 9 0,0
21.10.2018 06:00:00 11,8 32 17 56 31 SW 1019,2 11 0,0
21.10.2018 05:00:00 11,6 34 18 52 28 SW 1019,7 13 0,0
21.10.2018 04:00:00 11,6 32 18 50 27 SW 1020,2 13 0,0
21.10.2018 03:00:00 11,3 32 17 49 26 WSW 1020,6 17 0,0
21.10.2018 02:00:00 11,3 28 15 43 23 WSW 1021,0 21 0,0
21.10.2018 01:00:00 11,4 21 11 30 16 WSW 1021,5 28 0,0
21.10.2018 00:00:00 11,4 20 11 35 19 WSW 1021,8 37 0,0
20.10.2018 23:00:00 11,5 19 10 27 15 SSW 1022,4 39 0,0
20.10.2018 22:00:00 11,0 16 9 25 13 SSW 1022,9 50 0,0
20.10.2018 21:00:00 10,7 14 8 21 12 SW 1023,2 50 0,0
20.10.2018 20:00:00 10,8 13 7 17 9 WSW 1023,4 50 0,0
20.10.2018 19:00:00 10,6 11 6 18 10 WSW 1023,6 50 0,0
20.10.2018 18:00:00 10,1 10 6 14 8 WSW 1023,5 50 0,0
20.10.2018 17:00:00 10,1 5 3 13 7 W 1023,5 50 0,0
20.10.2018 16:00:00 10,0 9 5 11 6 W 1023,5 46 0,0
20.10.2018 15:00:00 10,5 4 2 13 7 NW 1023,4 41 0,0
20.10.2018 14:00:00 10,2 10 5 14 8 NNW 1023,1 42 0,0
20.10.2018 13:00:00 10,1 11 6 17 9 NNE 1023,1 37 0,0
20.10.2018 12:00:00 9,8 10 6 20 11 N 1022,6 40 0,0
20.10.2018 11:00:00 9,7 14 8 22 12 NNW 1022,4 40 0,0
20.10.2018 10:00:00 9,5 7 4 13 7 N 1021,6 29 0,0
20.10.2018 09:00:00 8,9 10 5 17 9 NNW 1020,7 35 0,0
20.10.2018 08:00:00 9,4 14 8 23 12 WNW 1020,4 42 0,0
20.10.2018 07:00:00 9,7 11 6 20 11 W 1020,1 40 0,0
20.10.2018 06:00:00 10,1 16 9 27 14 W 1019,8 37 0,0
20.10.2018 05:00:00 10,1 14 8 33 18 W 1019,4 38 0,0
20.10.2018 04:00:00 10,4 25 13 40 22 W 1019,4 36 0,0
20.10.2018 03:00:00 10,8 25 14 46 25 WSW 1019,5 25 0,0
20.10.2018 02:00:00 10,9 30 16 45 24 W 1019,5 25 0,0
20.10.2018 01:00:00 10,7 28 15 40 22 W 1019,7 26 0,0
20.10.2018 00:00:00 10,8 29 16 39 21 W 1019,7 30 0,0
19.10.2018 23:00:00 10,7 18 10 29 15 WSW 1019,9 32 0,0
19.10.2018 22:00:00 10,4 16 9 27 15 SW 1020,3 31 0,0
19.10.2018 21:00:00 10,0 20 11 30 16 SW 1020,7 50 0,0
19.10.2018 20:00:00 10,0 16 8 24 13 SSW 1020,9 50 0,0
19.10.2018 19:00:00 8,9 10 6 14 7 SSE 1020,8 50 0,0
19.10.2018 18:00:00 8,7 6 3 8 4 SE 1021,0 50 0,0
19.10.2018 17:00:00 9,5 4 2 6 4 S 1021,7 50 0,0
19.10.2018 16:00:00 9,8 4 2 10 6 WSW 1022,3 48 0,0
19.10.2018 15:00:00 10,0 7 4 10 6 SSW 1022,8 42 0,0
19.10.2018 14:00:00 10,2 6 3 13 7 W 1023,2 37 0,0
19.10.2018 13:00:00 10,0 6 3 10 6 W 1023,5 36 0,0
19.10.2018 12:00:00 8,5 4 2 9 5 E 1023,4 45 0,0
19.10.2018 11:00:00 7,5 6 4 11 6 ENE 1023,7 41 0,0
19.10.2018 10:00:00 6,8 7 4 10 5 ENE 1023,9 43 0,0
19.10.2018 09:00:00 6,2 8 4 12 6 NE 1023,6 36 0,0
19.10.2018 08:00:00 6,0 6 4 8 5 NE 1023,4 50 0,0
19.10.2018 07:00:00 6,3 4 2 7 4 NE 1023,0 50 0,0
19.10.2018 06:00:00 5,8 5 3 7 4 ENE 1023,1 50 0,0
19.10.2018 05:00:00 6,7 5 3 8 5 E 1023,2 50 0,0
19.10.2018 04:00:00 8,1 4 2 8 4 NE 1023,5 50 0,0
19.10.2018 03:00:00 8,8 4 2 8 4 NW 1023,5 50 0,0
19.10.2018 02:00:00 8,6 6 3 11 6 SSW 1023,3 50 0,0
19.10.2018 01:00:00 8,7 7 4 13 7 ENE 1023,1 50 0,0
19.10.2018 00:00:00 9,6 11 6 16 9 NNE 1022,9 50 0,0
18.10.2018 23:00:00 10,4 11 6 21 12 N 1022,7 50 0,0
18.10.2018 22:00:00 11,1 17 9 28 15 NW 1022,7 50 0,0
18.10.2018 21:00:00 11,6 20 11 32 17 W 1022,3 50 0,0
18.10.2018 20:00:00 11,7 24 13 35 19 W 1021,8 50 0,0
18.10.2018 19:00:00 11,5 21 12 42 23 W 1021,6 44 0,0
18.10.2018 18:00:00 11,6 30 16 41 22 W 1021,1 50 0,0
18.10.2018 17:00:00 11,7 25 13 36 19 W 1021,2 46 0,0
18.10.2018 16:00:00 12,1 20 11 32 18 W 1021,4 35 0,0
18.10.2018 15:00:00 12,1 19 10 27 15 W 1021,4 34 0,0
18.10.2018 14:00:00 12,2 19 11 30 16 W 1021,3 38 0,0
18.10.2018 13:00:00 12,0 24 13 31 17 W 1021,1 30 0,0
18.10.2018 12:00:00 11,8 22 12 34 18 WNW 1021,0 31 0,0
18.10.2018 11:00:00 11,6 26 14 41 22 WNW 1020,8 37 0,0
18.10.2018 10:00:00 11,1 30 16 40 21 WNW 1020,4 27 0,0
18.10.2018 09:00:00 10,9 28 15 40 22 WNW 1019,6 39 0,0
18.10.2018 08:00:00 10,8 31 17 39 21 WNW 1018,4 36 0,0
18.10.2018 07:00:00 10,8 26 14 40 22 NW 1018,0 38 0,0
18.10.2018 06:00:00 10,9 29 16 45 25 WNW 1017,6 42 0,0
18.10.2018 05:00:00 11,5 35 19 54 29 WNW 1017,2 35 0,0
18.10.2018 04:00:00 12,1 29 16 45 24 W 1016,8 40 0,0
18.10.2018 03:00:00 12,1 28 15 38 20 WNW 1016,7 33 0,0
18.10.2018 02:00:00 12,0 14 8 23 13 W 1016,8 26 0,0
18.10.2018 01:00:00 12,1 14 7 25 13 W 1016,6 19 0,0
18.10.2018 00:00:00 12,2 18 10 32 18 WSW 1016,5 13 0,0
17.10.2018 23:00:00 12,2 18 10 30 16 SW 1016,4 8 0,0
17.10.2018 22:00:00 12,3 20 11 31 17 SW 1016,6 3,6 0,0

tt = Température de l'air
ff = Vitesse du vent
fx = gusts
dd = Direction du vent
ppp = reduced air pressure
vv = visibility
rr = Quantités de précipitations

stations d'obs. à proximité